createdAt,value
2023-01-27T00:01:05.899Z,100979.23
2023-01-27T00:03:34.646Z,100977.05
2023-01-27T00:06:04.801Z,100974.95
2023-01-27T00:08:33.225Z,100974.98
2023-01-27T00:11:20.210Z,100973.33
2023-01-27T00:13:48.482Z,100973.48
2023-01-27T00:16:16.803Z,100977.55
2023-01-27T00:18:44.925Z,100974.87
2023-01-27T00:21:31.537Z,100970.17
2023-01-27T00:24:18.182Z,100969.36
2023-01-27T00:26:46.228Z,100966.66
2023-01-27T00:29:14.353Z,100962.03
2023-01-27T00:32:01.600Z,100957.36
2023-01-27T00:34:31.003Z,100954.04
2023-01-27T00:36:59.179Z,100953.91
2023-01-27T00:39:27.251Z,100952.27
2023-01-27T00:41:55.333Z,100953.45
2023-01-27T00:44:24.007Z,100953.23
2023-01-27T00:46:54.661Z,100945.58
2023-01-27T00:49:22.866Z,100946.15
2023-01-27T00:51:50.989Z,100944.50
2023-01-27T00:54:19.329Z,100944.73
2023-01-27T00:56:47.536Z,100946.52
2023-01-27T00:59:15.553Z,100949.99
2023-01-27T01:01:45.056Z,100938.73
2023-01-27T01:04:13.433Z,100936.70
2023-01-27T01:06:41.870Z,100942.33
2023-01-27T01:09:09.890Z,100946.20
2023-01-27T01:11:38.016Z,100946.77
2023-01-27T01:14:06.424Z,100946.60
2023-01-27T01:16:35.368Z,100942.18
2023-01-27T01:19:03.493Z,100935.24
2023-01-27T01:21:31.639Z,100937.13
2023-01-27T01:24:01.501Z,100928.05
2023-01-27T01:26:29.806Z,100922.91
2023-01-27T01:28:57.794Z,100914.56
2023-01-27T01:31:30.912Z,100909.55
2023-01-27T01:33:59.377Z,100908.67
2023-01-27T01:36:27.532Z,100907.78
2023-01-27T01:38:58.603Z,100902.60
2023-01-27T01:41:26.937Z,100898.81
2023-01-27T01:43:55.436Z,100895.86
2023-01-27T01:46:23.641Z,100887.11
2023-01-27T01:48:52.880Z,100880.02
2023-01-27T01:52:04.316Z,100879.88
2023-01-27T01:54:41.880Z,100876.08
2023-01-27T01:57:12.721Z,100868.25
2023-01-27T02:00:07.158Z,100863.13
2023-01-27T02:02:44.512Z,100855.45
2023-01-27T02:05:16.328Z,100857.39
2023-01-27T02:07:46.468Z,100859.81
2023-01-27T02:10:15.140Z,100865.89
2023-01-27T02:12:43.349Z,100869.69
2023-01-27T02:15:12.516Z,100874.35
2023-01-27T02:17:41.638Z,100874.08
2023-01-27T02:20:20.434Z,100869.63
2023-01-27T02:23:05.761Z,100865.80
2023-01-27T02:25:34.085Z,100862.33
2023-01-27T02:28:03.104Z,100858.20
2023-01-27T02:30:31.466Z,100856.64
2023-01-27T02:33:00.487Z,100849.17
2023-01-27T02:35:37.975Z,100855.46
2023-01-27T02:38:06.369Z,100852.39
2023-01-27T02:40:34.827Z,100848.94
2023-01-27T02:43:05.300Z,100846.63
2023-01-27T02:45:35.268Z,100845.55
2023-01-27T02:48:03.717Z,100849.30
2023-01-27T02:50:33.275Z,100852.23
2023-01-27T02:53:01.600Z,100853.96
2023-01-27T02:55:30.247Z,100846.54
2023-01-27T02:57:58.295Z,100842.70
2023-01-27T03:00:35.779Z,100840.54
2023-01-27T03:03:03.954Z,100836.04
2023-01-27T03:05:32.133Z,100833.44
2023-01-27T03:08:01.561Z,100832.23
2023-01-27T03:10:30.361Z,100839.85
2023-01-27T03:12:59.342Z,100838.60
2023-01-27T03:15:46.055Z,100838.75
2023-01-27T03:18:17.592Z,100843.16
2023-01-27T03:20:47.234Z,100845.70
2023-01-27T03:23:16.627Z,100841.08
2023-01-27T03:25:48.214Z,100832.02
2023-01-27T03:28:16.800Z,100825.97
2023-01-27T03:31:04.884Z,100827.70
2023-01-27T03:33:53.824Z,100837.21
2023-01-27T03:36:50.340Z,100838.84
2023-01-27T03:39:37.444Z,100836.31
2023-01-27T03:42:24.376Z,100830.87
2023-01-27T03:45:11.761Z,100824.09
2023-01-27T03:47:40.209Z,100827.67
2023-01-27T03:50:11.549Z,100833.61
2023-01-27T03:52:40.422Z,100831.46
2023-01-27T03:55:09.570Z,100832.27
2023-01-27T03:57:38.323Z,100834.14
2023-01-27T04:00:07.180Z,100840.09
2023-01-27T04:03:00.041Z,100838.17
2023-01-27T04:05:46.765Z,100840.45
2023-01-27T04:08:15.042Z,100844.66
2023-01-27T04:11:03.708Z,100844.31
2023-01-27T04:13:32.248Z,100841.14
2023-01-27T04:16:01.182Z,100837.11
2023-01-27T04:18:29.443Z,100840.56
2023-01-27T04:20:57.625Z,100840.14
2023-01-27T04:23:25.694Z,100841.91
2023-01-27T04:25:56.533Z,100847.69
2023-01-27T04:28:37.523Z,100852.97
2023-01-27T04:31:10.375Z,100853.33
2023-01-27T04:33:38.578Z,100848.94
2023-01-27T04:36:07.302Z,100848.29
2023-01-27T04:38:35.432Z,100849.11
2023-01-27T04:41:03.780Z,100850.92
2023-01-27T04:43:31.950Z,100852.89
2023-01-27T04:46:00.279Z,100848.21
2023-01-27T04:48:28.360Z,100842.53
2023-01-27T04:50:56.645Z,100840.60
2023-01-27T04:53:24.636Z,100829.96
2023-01-27T04:56:04.698Z,100827.91
2023-01-27T04:58:32.769Z,100824.57
2023-01-27T05:01:00.867Z,100825.54
2023-01-27T05:03:29.347Z,100820.44
2023-01-27T05:05:57.449Z,100822.23
2023-01-27T05:08:25.626Z,100822.27
2023-01-27T05:10:53.641Z,100821.25
2023-01-27T05:13:21.859Z,100820.47
2023-01-27T05:15:50.452Z,100828.84
2023-01-27T05:18:18.891Z,100832.34
2023-01-27T05:20:47.042Z,100834.77
2023-01-27T05:23:33.671Z,100836.75
2023-01-27T05:26:05.822Z,100832.36
2023-01-27T05:28:34.849Z,100832.42
2023-01-27T05:31:07.843Z,100831.39
2023-01-27T05:33:36.194Z,100828.55
2023-01-27T05:36:05.507Z,100829.70
2023-01-27T05:38:33.751Z,100831.17
2023-01-27T05:41:03.864Z,100833.95
2023-01-27T05:43:34.129Z,100839.17
2023-01-27T05:46:10.011Z,100845.31
2023-01-27T05:48:39.468Z,100851.93
2023-01-27T05:51:07.789Z,100852.98
2023-01-27T05:53:36.678Z,100845.60
2023-01-27T05:56:05.620Z,100841.63
2023-01-27T05:58:34.934Z,100843.41
2023-01-27T06:01:09.502Z,100842.04
2023-01-27T06:03:37.592Z,100847.21
2023-01-27T06:06:05.924Z,100848.76
2023-01-27T06:08:34.059Z,100842.74
2023-01-27T06:11:02.470Z,100840.32
2023-01-27T06:13:31.053Z,100837.73
2023-01-27T08:24:03.066Z,100782.25
2023-01-27T08:26:31.361Z,100780.84
2023-01-27T08:28:59.308Z,100772.91
2023-01-27T08:31:27.520Z,100770.52
2023-01-27T08:33:55.779Z,100772.67
2023-01-27T08:36:24.202Z,100782.56
2023-01-27T08:38:52.651Z,100782.84
2023-01-27T08:41:22.833Z,100775.30
2023-01-27T08:43:50.990Z,100772.46
2023-01-27T08:46:19.133Z,100777.59
2023-01-27T08:48:47.861Z,100779.65
2023-01-27T08:51:15.948Z,100784.52
2023-01-27T08:53:44.005Z,100781.86
2023-01-27T08:56:13.489Z,100781.48
2023-01-27T08:58:42.457Z,100781.29
2023-01-27T09:01:10.640Z,100773.86
2023-01-27T09:03:38.879Z,100780.63
2023-01-27T09:06:11.230Z,100788.61
2023-01-27T09:08:40.050Z,100783.80
2023-01-27T09:11:10.161Z,100780.75
2023-01-27T09:13:38.299Z,100778.61
2023-01-27T09:16:06.601Z,100775.04
2023-01-27T09:18:34.825Z,100772.64
2023-01-27T09:21:06.975Z,100765.17
2023-01-27T09:23:35.126Z,100763.92
2023-01-27T09:26:03.131Z,100764.17
2023-01-27T09:28:31.143Z,100757.84
2023-01-27T09:30:59.421Z,100750.70
2023-01-27T09:33:27.717Z,100749.45
2023-01-27T09:36:00.986Z,100753.59
2023-01-27T09:38:31.912Z,100755.05
2023-01-27T09:41:25.621Z,100760.92
2023-01-27T09:44:13.864Z,100758.73
2023-01-27T09:47:00.710Z,100759.82
2023-01-27T09:49:54.864Z,100747.88
2023-01-27T09:52:46.428Z,100743.11
2023-01-27T09:55:37.904Z,100741.94
2023-01-27T09:58:15.598Z,100733.20
2023-01-27T10:01:02.267Z,100732.19
2023-01-27T10:03:43.502Z,100741.79
2023-01-27T10:06:22.414Z,100738.66
2023-01-27T10:09:08.296Z,100733.95
2023-01-27T10:11:57.754Z,100736.88
2023-01-27T10:14:48.842Z,100734.45
2023-01-27T10:17:31.595Z,100727.02
2023-01-27T10:20:18.019Z,100731.96
2023-01-27T10:23:20.608Z,100730.53
2023-01-27T10:26:20.870Z,100733.00
2023-01-27T10:28:51.394Z,100726.85
2023-01-27T10:31:32.324Z,100721.80
2023-01-27T10:34:03.607Z,100727.46
2023-01-27T10:37:05.211Z,100724.14
2023-01-27T10:39:47.492Z,100719.63
2023-01-27T10:42:28.198Z,100719.16
2023-01-27T10:45:30.849Z,100711.77
2023-01-27T10:48:08.251Z,100715.28
2023-01-27T10:50:40.001Z,100713.64
2023-01-27T10:53:21.606Z,100711.81
2023-01-27T10:56:36.330Z,100700.09
2023-01-27T10:59:13.904Z,100704.48
2023-01-27T11:01:49.229Z,100701.77
2023-01-27T11:04:26.325Z,100702.47
2023-01-27T11:06:54.434Z,100695.69
2023-01-27T11:09:26.703Z,100695.11
2023-01-27T11:11:58.395Z,100686.91
2023-01-27T11:14:42.010Z,100688.59
2023-01-27T11:17:30.467Z,100684.16
2023-01-27T11:20:06.417Z,100684.79
2023-01-27T11:23:00.502Z,100682.52
2023-01-27T11:25:55.311Z,100682.15
2023-01-27T11:28:51.578Z,100675.52
2023-01-27T11:31:37.690Z,100668.94
2023-01-27T11:34:14.405Z,100663.70
2023-01-27T11:36:42.573Z,100669.33
2023-01-27T11:39:11.673Z,100669.96
2023-01-27T11:41:43.251Z,100667.42
2023-01-27T11:44:37.533Z,100665.08
2023-01-27T11:47:06.931Z,100657.30
2023-01-27T11:49:37.331Z,100653.76
2023-01-27T11:52:13.456Z,100650.98
2023-01-27T11:54:45.427Z,100651.16
2023-01-27T11:57:22.757Z,100651.21
2023-01-27T12:00:01.816Z,100652.06
2023-01-27T12:02:43.236Z,100654.30
2023-01-27T12:05:18.090Z,100658.44
2023-01-27T12:07:56.280Z,100656.27
2023-01-27T14:24:11.894Z,100602.61
2023-01-27T14:26:39.935Z,100595.08
2023-01-27T14:29:08.393Z,100591.75
2023-01-27T14:31:44.936Z,100595.40
2023-01-27T14:34:21.795Z,100601.98
2023-01-27T14:36:55.639Z,100603.41
2023-01-27T14:39:41.968Z,100602.09
2023-01-27T14:45:07.181Z,100602.11
2023-01-27T14:47:41.406Z,100607.71
2023-01-27T14:50:21.773Z,100602.83
2023-01-27T14:52:56.233Z,100601.00
2023-01-27T14:56:01.846Z,100600.90
2023-01-27T14:58:51.939Z,100600.73
2023-01-27T15:01:32.273Z,100599.05
2023-01-27T15:04:37.977Z,100600.56
2023-01-27T15:07:08.805Z,100599.48
2023-01-27T15:10:08.409Z,100603.77
2023-01-27T15:12:48.178Z,100605.56
2023-01-27T15:15:28.590Z,100602.19
2023-01-27T15:18:06.189Z,100595.73
2023-01-27T15:20:40.307Z,100598.05
2023-01-27T15:23:30.630Z,100601.16
2023-01-27T15:26:02.573Z,100594.52
2023-01-27T15:28:31.609Z,100595.23
2023-01-27T15:31:16.994Z,100593.17
2023-01-27T15:33:48.367Z,100592.17
2023-01-27T15:36:28.365Z,100592.47
2023-01-27T15:39:11.574Z,100593.80
2023-01-27T15:41:52.037Z,100592.84
2023-01-27T15:44:33.865Z,100589.52
2023-01-27T15:47:21.980Z,100593.56
2023-01-27T15:50:03.526Z,100591.86
2023-01-27T15:52:34.329Z,100584.48
2023-01-27T15:55:03.876Z,100573.15
2023-01-27T15:57:35.317Z,100576.74
2023-01-27T16:00:24.260Z,100577.70
2023-01-27T16:02:54.497Z,100576.65
2023-01-27T16:05:41.823Z,100573.59
2023-01-27T16:08:15.306Z,100573.50
2023-01-27T16:10:45.651Z,100576.50
2023-01-27T16:13:29.519Z,100576.54
2023-01-27T16:16:19.628Z,100571.45
2023-01-27T16:18:59.829Z,100571.09
2023-01-27T16:21:49.934Z,100573.11
2023-01-27T16:24:39.969Z,100572.87
2023-01-27T16:27:36.237Z,100568.48
2023-01-27T16:30:14.037Z,100568.86
2023-01-27T16:32:47.745Z,100565.69
2023-01-27T16:35:17.630Z,100565.21
2023-01-27T16:38:25.028Z,100556.05
2023-01-27T16:40:55.946Z,100551.10
2023-01-27T16:43:29.952Z,100554.60
2023-01-27T16:45:59.303Z,100559.98
2023-01-27T16:48:29.429Z,100556.94
2023-01-27T16:51:20.017Z,100559.51
2023-01-27T16:53:50.137Z,100560.09
2023-01-27T16:56:21.793Z,100564.64
2023-01-27T16:58:50.989Z,100569.35
2023-01-27T17:01:25.036Z,100570.05
2023-01-27T17:03:54.984Z,100573.98
2023-01-27T17:06:23.101Z,100573.02
2023-01-27T17:08:51.321Z,100573.02
2023-01-27T17:11:25.479Z,100572.66
2023-01-27T17:14:04.099Z,100571.58
2023-01-27T17:16:36.702Z,100572.46
2023-01-27T17:19:16.931Z,100575.50
2023-01-27T17:21:53.359Z,100572.73
2023-01-27T17:24:28.656Z,100572.60
2023-01-27T17:26:59.272Z,100579.40
2023-01-27T17:29:36.112Z,100582.24
2023-01-27T17:32:04.540Z,100576.45
2023-01-27T17:34:32.664Z,100576.51
2023-01-27T17:37:17.302Z,100574.89
2023-01-27T17:39:45.618Z,100568.52
2023-01-27T17:42:16.984Z,100565.30
2023-01-27T17:44:45.953Z,100567.02
2023-01-27T17:47:14.691Z,100566.71
2023-01-27T17:49:43.039Z,100570.03
2023-01-27T17:52:11.963Z,100576.27
2023-01-27T17:54:41.737Z,100571.71
2023-01-27T17:57:21.531Z,100569.84
2023-01-27T18:00:06.664Z,100573.41
2023-01-27T18:02:49.099Z,100575.48
2023-01-27T20:10:17.975Z,100574.61
2023-01-27T20:24:42.431Z,100562.95
2023-01-27T20:27:11.151Z,100561.11
2023-01-27T20:29:39.733Z,100561.36
2023-01-27T20:32:09.857Z,100564.67
2023-01-27T20:34:38.851Z,100563.89
2023-01-27T20:37:07.950Z,100561.62
2023-01-27T20:39:36.137Z,100558.42
2023-01-27T20:42:07.890Z,100561.13
2023-01-27T20:44:36.571Z,100562.45
2023-01-27T20:47:04.843Z,100565.33
2023-01-27T20:49:35.749Z,100568.41
2023-01-27T20:52:03.955Z,100571.49
2023-01-27T20:54:32.015Z,100572.63
2023-01-27T20:57:00.398Z,100575.55
2023-01-27T20:59:30.007Z,100580.13
2023-01-27T21:01:58.204Z,100576.76
2023-01-27T21:04:26.499Z,100575.34
2023-01-27T21:06:54.721Z,100572.16
2023-01-27T21:09:22.681Z,100570.41
2023-01-27T21:11:50.672Z,100568.42
2023-01-27T21:14:24.031Z,100565.80
2023-01-27T21:16:52.181Z,100563.21
2023-01-27T21:19:20.255Z,100559.17
2023-01-27T21:21:49.174Z,100560.63
2023-01-27T21:24:17.412Z,100557.64
2023-01-27T21:26:45.584Z,100558.52
2023-01-27T21:29:13.597Z,100558.94
2023-01-27T21:31:41.992Z,100557.48
2023-01-27T21:34:10.567Z,100552.81
2023-01-27T21:36:38.955Z,100549.49
2023-01-27T21:39:07.105Z,100542.17
2023-01-27T21:41:53.649Z,100539.66
2023-01-27T21:44:42.702Z,100536.98
2023-01-27T21:47:11.508Z,100534.02
2023-01-27T21:49:58.939Z,100526.69
2023-01-27T21:52:42.289Z,100517.26
2023-01-27T21:55:21.484Z,100515.58
2023-01-27T21:57:50.958Z,100511.93
2023-01-27T22:00:23.738Z,100507.35
2023-01-27T22:02:58.804Z,100502.63
2023-01-27T22:05:27.341Z,100501.02
2023-01-27T22:07:55.440Z,100498.58
2023-01-27T22:10:25.687Z,100498.94
2023-01-27T22:13:00.368Z,100495.48
2023-01-27T22:15:28.994Z,100493.63
2023-01-27T22:17:58.184Z,100487.72
2023-01-27T22:20:27.155Z,100486.51
2023-01-27T22:22:55.369Z,100484.92
2023-01-27T22:25:23.438Z,100479.06
2023-01-27T22:27:53.678Z,100472.17
2023-01-27T22:30:21.728Z,100472.02
2023-01-27T22:32:49.909Z,100471.85
2023-01-27T22:35:18.698Z,100473.02
2023-01-27T22:37:49.157Z,100468.14
2023-01-27T22:40:17.883Z,100457.41
2023-01-27T22:42:48.818Z,100463.06
2023-01-27T22:45:17.362Z,100464.42
2023-01-27T22:47:45.581Z,100469.55
2023-01-27T22:50:13.760Z,100467.66
2023-01-27T22:52:41.827Z,100464.44
2023-01-27T22:55:10.437Z,100464.77
2023-01-27T22:57:38.685Z,100469.39
2023-01-27T23:00:08.182Z,100470.08
2023-01-27T23:02:36.283Z,100459.73
2023-01-27T23:05:04.982Z,100461.14
2023-01-27T23:07:33.163Z,100459.03
2023-01-27T23:10:01.134Z,100457.70
2023-01-27T23:12:29.860Z,100459.39
2023-01-27T23:15:00.408Z,100458.39
2023-01-27T23:17:28.648Z,100459.61
2023-01-27T23:19:56.595Z,100459.05
2023-01-27T23:22:24.553Z,100456.52
2023-01-27T23:24:52.698Z,100455.85
2023-01-27T23:27:20.717Z,100457.78
2023-01-27T23:29:48.737Z,100453.66
2023-01-27T23:32:16.723Z,100454.19
2023-01-27T23:34:44.773Z,100455.44
2023-01-27T23:37:12.766Z,100454.98
2023-01-27T23:39:45.724Z,100454.10
2023-01-27T23:42:15.740Z,100452.79
2023-01-27T23:44:43.812Z,100451.81
2023-01-27T23:47:12.029Z,100446.59
2023-01-27T23:49:40.430Z,100446.65
2023-01-27T23:52:09.049Z,100447.63
2023-01-27T23:54:37.061Z,100445.92
2023-01-27T23:57:08.080Z,100443.67
2023-01-27T23:59:37.473Z,100441.65
